Time;durP1;ratioP1;P1;durP2;ratioP2;P2;SDS_P1;SDS_P2;PMS_P1;PMS_P2;Temp;Humidity;BMP_temperature;BMP_pressure;BME280_temperature;BME280_humidity;BME280_pressure;Samples;Min_cycle;Max_cycle;Signal;HPM_P1;HPM_P2
2022/01/29 00:00:51;;;;;;;30.90;10.65;;;8.00;70.10;;;;;;2634558;52;21089;-74
2022/01/29 00:03:18;;;;;;;31.42;12.02;;;8.00;70.30;;;;;;2380387;56;21568;-74
2022/01/29 00:05:45;;;;;;;47.95;16.60;;;8.00;70.30;;;;;;2380542;56;21046;-74
2022/01/29 00:08:12;;;;;;;28.58;11.98;;;8.00;70.40;;;;;;2380694;56;21646;-74
2022/01/29 00:10:42;;;;;;;27.02;11.80;;;8.00;70.50;;;;;;2380031;56;21023;-74
2022/01/29 00:13:10;;;;;;;25.83;11.65;;;8.00;70.60;;;;;;2380781;56;21034;-74
2022/01/29 00:15:37;;;;;;;36.92;13.52;;;8.10;70.50;;;;;;2380992;56;21083;-75
2022/01/29 00:18:05;;;;;;;29.30;11.65;;;8.10;70.60;;;;;;2380722;56;21632;-74
2022/01/29 00:20:32;;;;;;;29.75;13.18;;;8.10;70.50;;;;;;2380311;56;21015;-75
2022/01/29 00:22:59;;;;;;;29.55;12.27;;;8.10;70.50;;;;;;2380539;56;21521;-74
2022/01/29 00:25:27;;;;;;;26.65;10.60;;;8.10;70.50;;;;;;2380811;56;21102;-75
2022/01/29 00:27:56;;;;;;;32.65;13.10;;;8.10;70.50;;;;;;2380507;56;21038;-74
2022/01/29 00:30:30;;;;;;;32.80;13.95;;;8.20;70.40;;;;;;2634828;52;21106;-75
2022/01/29 00:32:58;;;;;;;32.63;14.85;;;8.20;70.60;;;;;;2380461;56;21111;-74
2022/01/29 00:35:25;;;;;;;30.08;13.57;;;8.20;70.50;;;;;;2379949;56;21117;-74
2022/01/29 00:37:52;;;;;;;36.92;14.05;;;8.20;70.60;;;;;;2633420;52;21609;-75
2022/01/29 00:40:21;;;;;;;33.95;14.07;;;8.20;70.50;;;;;;2379080;56;21102;-74
2022/01/29 00:42:48;;;;;;;31.67;15.45;;;8.30;70.50;;;;;;2380131;56;21121;-74
2022/01/29 00:45:16;;;;;;;31.42;14.25;;;8.20;70.30;;;;;;2380747;56;21038;-75
2022/01/29 00:47:43;;;;;;;44.70;16.95;;;8.20;71.10;;;;;;2379960;56;21114;-75
2022/01/29 00:50:12;;;;;;;37.95;16.77;;;8.20;70.40;;;;;;2379937;56;21537;-74
2022/01/29 00:52:39;;;;;;;30.35;15.70;;;8.20;70.50;;;;;;2380159;56;21110;-74
2022/01/29 00:55:09;;;;;;;36.60;16.37;;;8.30;70.50;;;;;;2380665;56;21053;-75
2022/01/29 00:57:39;;;;;;;42.78;18.20;;;8.30;70.70;;;;;;2380715;56;21043;-75
2022/01/29 01:00:09;;;;;;;46.03;18.73;;;8.20;70.70;;;;;;2380543;56;21043;-74
2022/01/29 01:02:37;;;;;;;42.95;18.70;;;8.20;70.80;;;;;;2379751;56;21510;-74
2022/01/29 01:05:05;;;;;;;41.13;16.40;;;8.20;70.90;;;;;;2380432;56;21071;-74
2022/01/29 01:07:33;;;;;;;31.45;16.15;;;8.20;71.30;;;;;;2380706;56;21221;-74
2022/01/29 01:10:00;;;;;;;41.88;17.27;;;8.20;71.50;;;;;;2380049;56;21102;-74
2022/01/29 01:12:28;;;;;;;45.33;18.80;;;8.30;71.70;;;;;;2380863;56;21396;-73
2022/01/29 01:14:55;;;;;;;50.40;22.73;;;8.20;72.10;;;;;;2380805;56;21022;-75
2022/01/29 01:17:22;;;;;;;44.15;22.45;;;8.20;72.30;;;;;;2380624;56;21113;-74
2022/01/29 01:19:50;;;;;;;44.17;19.08;;;8.20;72.50;;;;;;2380076;56;21022;-74
2022/01/29 01:22:17;;;;;;;41.70;19.85;;;8.20;72.70;;;;;;2379883;56;21605;-74
2022/01/29 01:24:47;;;;;;;47.15;21.70;;;8.20;73.00;;;;;;2380788;56;21113;-74
2022/01/29 01:27:15;;;;;;;49.65;24.17;;;8.20;73.20;;;;;;2380887;56;21090;-75
2022/01/29 01:29:42;;;;;;;50.00;23.75;;;8.20;73.90;;;;;;2380479;56;21042;-74
2022/01/29 01:32:11;;;;;;;53.22;24.42;;;8.10;74.00;;;;;;2380808;56;21034;-75
2022/01/29 01:34:43;;;;;;;49.35;20.42;;;8.10;74.20;;;;;;2380709;56;21557;-74
2022/01/29 01:37:17;;;;;;;43.63;20.03;;;8.10;74.30;;;;;;2381119;56;21096;-74
2022/01/29 01:39:44;;;;;;;57.17;24.30;;;8.10;74.50;;;;;;2380372;56;21042;-74
2022/01/29 01:42:11;;;;;;;61.25;25.35;;;8.10;74.90;;;;;;2380833;56;21042;-75
2022/01/29 01:44:42;;;;;;;57.33;27.05;;;8.10;75.30;;;;;;2635228;52;21050;-75
2022/01/29 01:47:10;;;;;;;63.08;27.50;;;8.10;75.70;;;;;;2381245;56;21054;-74
2022/01/29 01:49:39;;;;;;;56.85;25.75;;;8.00;75.60;;;;;;2380463;56;21035;-74
2022/01/29 01:52:09;;;;;;;58.35;25.88;;;8.10;75.60;;;;;;2380948;56;21018;-75
2022/01/29 01:54:37;;;;;;;60.83;28.23;;;8.10;75.70;;;;;;2380695;56;21544;-75
2022/01/29 01:57:05;;;;;;;60.63;27.70;;;8.10;76.20;;;;;;2380857;56;21118;-75
2022/01/29 01:59:33;;;;;;;59.92;28.70;;;8.10;76.20;;;;;;2380388;56;21110;-75
2022/01/29 02:02:00;;;;;;;66.78;27.15;;;8.00;76.30;;;;;;2380821;56;21010;-75
2022/01/29 02:04:27;;;;;;;60.05;28.38;;;8.10;76.30;;;;;;2380093;56;21098;-75
2022/01/29 02:06:55;;;;;;;61.80;28.38;;;8.10;76.10;;;;;;2380234;56;21051;-75
2022/01/29 02:09:24;;;;;;;66.95;31.50;;;8.10;76.20;;;;;;2379684;56;21054;-75
2022/01/29 02:11:55;;;;;;;56.40;29.30;;;8.10;76.30;;;;;;2380296;56;21481;-75
2022/01/29 02:14:26;;;;;;;64.65;31.95;;;8.10;75.90;;;;;;2380598;56;21053;-74
2022/01/29 02:16:54;;;;;;;54.03;26.80;;;8.10;76.00;;;;;;2380908;56;21058;-75
2022/01/29 02:19:21;;;;;;;72.72;32.53;;;8.20;75.80;;;;;;2380635;56;21031;-75
2022/01/29 02:21:48;;;;;;;64.45;29.98;;;8.20;75.90;;;;;;2380436;56;21624;-75
2022/01/29 02:24:15;;;;;;;70.28;33.00;;;8.20;76.10;;;;;;2381009;56;21094;-75
2022/01/29 02:26:43;;;;;;;74.47;34.33;;;8.20;76.40;;;;;;2380425;56;21058;-74
2022/01/29 02:29:10;;;;;;;62.80;32.40;;;8.20;77.30;;;;;;2380228;56;21030;-75
2022/01/29 02:31:45;;;;;;;65.72;32.95;;;8.20;77.10;;;;;;2380462;56;21533;-75
2022/01/29 02:34:13;;;;;;;67.05;31.62;;;8.10;77.10;;;;;;2634900;52;21462;-74
2022/01/29 02:36:42;;;;;;;75.80;36.28;;;8.20;76.90;;;;;;2380187;56;21027;-74
2022/01/29 02:39:10;;;;;;;69.65;31.20;;;8.20;77.30;;;;;;2379721;56;21031;-75
2022/01/29 02:41:40;;;;;;;70.25;30.75;;;8.20;77.40;;;;;;2380544;56;21058;-75
2022/01/29 02:44:09;;;;;;;67.12;29.65;;;8.20;76.90;;;;;;2380732;56;21104;-74
2022/01/29 02:46:50;;;;;;;56.53;25.42;;;8.20;77.00;;;;;;2380796;56;21097;-75
2022/01/29 02:49:18;;;;;;;70.07;32.92;;;8.20;77.20;;;;;;2380290;56;21035;-74
2022/01/29 02:51:47;;;;;;;70.45;30.80;;;8.20;77.60;;;;;;2380983;56;21122;-75
2022/01/29 02:54:15;;;;;;;63.45;28.67;;;8.20;78.60;;;;;;2380559;56;21129;-75
2022/01/29 02:56:42;;;;;;;68.53;30.62;;;8.10;77.50;;;;;;2380941;56;21022;-75
2022/01/29 02:59:10;;;;;;;69.47;30.70;;;8.10;77.30;;;;;;2380237;56;21077;-75
2022/01/29 03:01:38;;;;;;;67.15;32.00;;;8.20;78.00;;;;;;2380888;56;21039;-75
2022/01/29 03:04:06;;;;;;;75.20;34.17;;;8.10;78.10;;;;;;2380251;56;21043;-75
2022/01/29 03:06:34;;;;;;;64.03;30.70;;;8.10;78.00;;;;;;2381128;56;21047;-75
2022/01/29 03:09:02;;;;;;;72.37;32.88;;;8.20;77.80;;;;;;2380430;56;21110;-74
2022/01/29 03:11:30;;;;;;;70.37;32.08;;;8.20;77.80;;;;;;2380856;56;21117;-75
2022/01/29 03:13:57;;;;;;;88.90;35.72;;;8.20;77.90;;;;;;2380964;56;21058;-74
2022/01/29 03:16:24;;;;;;;64.70;30.08;;;8.20;78.50;;;;;;2380655;56;21062;-75
2022/01/29 03:18:52;;;;;;;69.47;31.85;;;8.20;78.70;;;;;;2380508;56;21632;-74
2022/01/29 03:21:19;;;;;;;64.32;27.70;;;8.20;78.40;;;;;;2379662;56;21031;-76
2022/01/29 03:23:46;;;;;;;67.28;29.85;;;8.20;78.20;;;;;;2380864;56;21121;-75
2022/01/29 03:26:13;;;;;;;63.85;28.58;;;8.10;78.30;;;;;;2635173;52;21034;-75
2022/01/29 03:28:41;;;;;;;55.03;25.25;;;8.20;78.60;;;;;;2635196;52;21038;-74
2022/01/29 03:31:08;;;;;;;67.18;29.87;;;8.20;78.00;;;;;;2379997;56;21042;-75
2022/01/29 03:33:35;;;;;;;61.70;29.40;;;8.30;78.20;;;;;;2380582;56;21087;-75
2022/01/29 03:36:03;;;;;;;65.78;28.67;;;8.20;78.00;;;;;;2381025;56;21054;-75
2022/01/29 03:38:30;;;;;;;58.80;27.55;;;8.20;78.40;;;;;;2380838;56;21019;-75
2022/01/29 03:41:01;;;;;;;53.00;24.63;;;8.20;79.10;;;;;;2380320;56;21129;-74
2022/01/29 03:43:32;;;;;;;71.12;29.08;;;8.20;79.00;;;;;;2380900;56;21101;-74
2022/01/29 03:45:59;;;;;;;71.25;31.75;;;8.20;79.10;;;;;;2635173;52;21525;-75
2022/01/29 03:48:26;;;;;;;58.08;27.58;;;8.20;79.40;;;;;;2380977;56;21046;-75
2022/01/29 03:50:54;;;;;;;55.45;26.75;;;8.20;79.60;;;;;;2379907;56;21051;-74
2022/01/29 03:53:21;;;;;;;55.33;24.12;;;8.30;79.30;;;;;;2380786;56;21114;-75
2022/01/29 03:55:49;;;;;;;52.00;23.62;;;8.30;79.00;;;;;;2380807;56;21026;-74
2022/01/29 03:58:16;;;;;;;57.60;26.62;;;8.20;78.10;;;;;;2380475;56;21046;-75
2022/01/29 04:00:43;;;;;;;52.38;24.67;;;8.30;78.80;;;;;;2379856;56;21035;-74
2022/01/29 04:03:10;;;;;;;51.95;24.45;;;8.20;78.90;;;;;;2380474;56;21042;-74
2022/01/29 04:05:38;;;;;;;58.47;26.98;;;8.30;79.60;;;;;;2635591;52;21189;-74
2022/01/29 04:08:13;;;;;;;56.78;26.70;;;8.30;79.50;;;;;;2380825;56;21034;-75
2022/01/29 04:10:41;;;;;;;60.25;25.42;;;8.30;79.10;;;;;;2351071;56;21117;-75
2022/01/29 04:13:11;;;;;;;59.78;27.35;;;8.30;79.10;;;;;;2598575;53;21030;-76
2022/01/29 04:15:38;;;;;;;48.58;22.05;;;8.30;79.80;;;;;;2350133;57;21124;-76
2022/01/29 04:18:05;;;;;;;54.00;24.83;;;8.30;79.30;;;;;;2349438;57;21090;-76
2022/01/29 04:20:34;;;;;;;51.10;23.67;;;8.30;79.30;;;;;;2349013;57;21691;-76
2022/01/29 04:23:01;;;;;;;55.88;23.27;;;8.30;79.60;;;;;;2349494;57;21048;-76
2022/01/29 04:25:29;;;;;;;52.10;22.98;;;8.30;79.60;;;;;;2349816;57;21034;-76
2022/01/29 04:27:57;;;;;;;52.95;26.08;;;8.30;80.00;;;;;;2349851;57;21066;-76
2022/01/29 04:30:28;;;;;;;49.05;23.30;;;8.40;80.20;;;;;;2349719;57;21351;-76
2022/01/29 04:33:04;;;;;;;51.55;23.20;;;8.40;79.60;;;;;;2349965;57;21132;-76
2022/01/29 04:35:32;;;;;;;52.38;24.60;;;8.40;78.90;;;;;;2349924;57;21081;-76
2022/01/29 04:37:59;;;;;;;51.15;24.77;;;8.40;79.50;;;;;;2348614;57;21154;-76
2022/01/29 04:40:27;;;;;;;56.30;24.10;;;8.50;79.70;;;;;;2349133;57;21132;-75
2022/01/29 04:42:54;;;;;;;47.22;20.90;;;8.50;79.80;;;;;;2349757;57;21033;-76
2022/01/29 04:45:21;;;;;;;38.97;20.27;;;8.40;79.90;;;;;;2349676;57;21186;-76
2022/01/29 04:47:49;;;;;;;54.33;24.67;;;8.40;79.70;;;;;;2349947;57;21051;-76
2022/01/29 04:50:16;;;;;;;59.15;26.05;;;8.40;80.00;;;;;;2349319;57;21555;-76
2022/01/29 04:52:43;;;;;;;48.90;22.37;;;8.40;80.50;;;;;;2349482;57;21564;-76
2022/01/29 04:55:11;;;;;;;45.92;20.62;;;8.40;80.70;;;;;;2349759;57;21050;-76
2022/01/29 04:57:40;;;;;;;51.67;23.50;;;8.40;80.70;;;;;;2349645;57;21105;-76
2022/01/29 05:00:10;;;;;;;46.80;22.33;;;8.40;81.40;;;;;;2349475;57;21132;-76
2022/01/29 05:02:38;;;;;;;48.92;22.73;;;8.40;81.20;;;;;;2349527;57;21690;-76
2022/01/29 05:05:07;;;;;;;53.42;24.50;;;8.50;81.40;;;;;;2349400;57;21601;-76
2022/01/29 05:07:34;;;;;;;50.22;22.25;;;8.40;80.90;;;;;;2349675;57;21041;-76
2022/01/29 05:10:01;;;;;;;44.22;22.30;;;8.50;81.10;;;;;;2348848;57;21097;-75
2022/01/29 05:12:34;;;;;;;48.22;23.85;;;8.50;81.00;;;;;;2349826;57;21553;-76
2022/01/29 05:15:13;;;;;;;;;;;8.50;81.70;;;;;;2352919;57;21413;-76
2022/01/29 05:28:42;;;;;;;40.47;19.15;;;8.60;81.50;;;;;;2349246;57;20998;-75
2022/01/29 05:31:09;;;;;;;40.05;18.65;;;8.50;81.50;;;;;;2597711;52;21108;-76
2022/01/29 05:33:36;;;;;;;43.38;19.92;;;8.50;81.80;;;;;;2349480;57;21050;-75
2022/01/29 05:36:04;;;;;;;44.65;20.95;;;8.60;81.80;;;;;;2349240;57;21038;-75
2022/01/29 05:38:31;;;;;;;39.97;19.95;;;8.60;81.70;;;;;;2349429;57;21022;-75
2022/01/29 05:40:59;;;;;;;31.35;15.88;;;8.60;81.90;;;;;;2349089;57;21564;-76
2022/01/29 05:43:26;;;;;;;45.05;21.05;;;8.70;82.00;;;;;;2349261;57;21081;-75
2022/01/29 05:45:53;;;;;;;37.65;18.73;;;8.70;82.30;;;;;;2349701;57;21101;-75
2022/01/29 05:48:20;;;;;;;40.08;19.55;;;8.70;82.00;;;;;;2349056;57;21041;-75
2022/01/29 05:50:49;;;;;;;36.88;18.02;;;8.80;81.70;;;;;;2348784;57;21025;-76
2022/01/29 05:53:16;;;;;;;47.62;21.15;;;8.80;81.50;;;;;;2349500;57;21108;-75
2022/01/29 05:55:43;;;;;;;46.70;21.73;;;8.80;81.60;;;;;;2349135;57;21120;-75
2022/01/29 05:58:11;;;;;;;39.72;18.70;;;8.80;81.70;;;;;;2597457;53;21116;-75
2022/01/29 06:00:38;;;;;;;38.75;18.62;;;8.80;81.30;;;;;;2348971;57;21584;-76
2022/01/29 06:03:08;;;;;;;35.75;18.02;;;8.90;81.00;;;;;;2349792;57;21053;-75
2022/01/29 06:05:36;;;;;;;38.70;18.75;;;8.90;81.00;;;;;;2349726;57;21033;-75
2022/01/29 06:08:05;;;;;;;34.35;17.77;;;8.90;81.60;;;;;;2348721;57;21129;-76
2022/01/29 06:10:33;;;;;;;48.55;21.73;;;9.00;81.60;;;;;;2348857;57;21109;-76
2022/01/29 06:13:02;;;;;;;41.95;19.90;;;9.00;80.80;;;;;;2349340;57;21041;-76
2022/01/29 06:15:30;;;;;;;48.60;20.60;;;9.00;81.00;;;;;;2349444;57;21124;-76
2022/01/29 06:17:58;;;;;;;36.75;18.25;;;8.90;81.70;;;;;;2349694;57;21219;-75
2022/01/29 06:20:26;;;;;;;38.35;20.75;;;9.00;81.90;;;;;;2349512;57;21458;-75
2022/01/29 06:22:53;;;;;;;43.13;21.25;;;8.90;81.80;;;;;;2349657;57;21575;-75
2022/01/29 06:25:20;;;;;;;34.97;19.05;;;9.00;81.70;;;;;;2598111;53;21064;-75
2022/01/29 06:27:48;;;;;;;42.17;21.10;;;9.00;81.10;;;;;;2349643;57;21624;-75
2022/01/29 06:30:16;;;;;;;41.78;20.58;;;9.00;81.80;;;;;;2348932;57;21105;-75
2022/01/29 06:32:43;;;;;;;45.95;22.00;;;9.00;82.50;;;;;;2349508;57;21045;-75
2022/01/29 06:35:11;;;;;;;42.00;20.30;;;9.10;82.70;;;;;;2348917;57;21069;-75
2022/01/29 06:37:39;;;;;;;33.40;18.37;;;9.00;82.30;;;;;;2349550;57;21145;-75
2022/01/29 06:40:09;;;;;;;40.72;19.60;;;9.10;82.80;;;;;;2348329;57;21120;-74
2022/01/29 06:42:36;;;;;;;36.60;19.65;;;9.10;82.60;;;;;;2349861;57;21049;-75
2022/01/29 06:45:05;;;;;;;41.00;18.83;;;9.10;82.40;;;;;;2349345;57;21129;-75
2022/01/29 06:47:32;;;;;;;37.42;18.48;;;9.20;82.60;;;;;;2349548;57;21041;-74
2022/01/29 06:50:00;;;;;;;47.80;21.12;;;9.20;82.00;;;;;;2348916;57;21627;-75
2022/01/29 06:52:27;;;;;;;38.20;18.42;;;9.20;81.30;;;;;;2349599;57;21045;-75
2022/01/29 06:54:54;;;;;;;41.03;19.33;;;9.20;81.70;;;;;;2349599;57;21114;-75
2022/01/29 06:57:21;;;;;;;36.00;18.15;;;9.20;82.00;;;;;;2349678;57;22199;-75
2022/01/29 06:59:49;;;;;;;36.75;19.33;;;9.20;82.40;;;;;;2349275;57;21223;-75
2022/01/29 07:02:16;;;;;;;39.28;16.05;;;9.20;82.70;;;;;;2349872;57;21058;-75
2022/01/29 07:04:43;;;;;;;42.97;20.33;;;9.20;81.80;;;;;;2349743;57;21092;-75
2022/01/29 07:07:10;;;;;;;38.15;18.52;;;9.20;82.60;;;;;;2597857;53;21066;-75
2022/01/29 07:09:38;;;;;;;38.97;18.30;;;9.30;83.30;;;;;;2349221;57;21065;-74
2022/01/29 07:12:10;;;;;;;42.00;18.83;;;9.30;82.40;;;;;;2349907;57;21037;-75
2022/01/29 07:14:39;;;;;;;39.67;19.87;;;9.30;82.80;;;;;;2349894;57;21096;-75
2022/01/29 07:17:10;;;;;;;34.45;17.90;;;9.30;82.60;;;;;;2349778;57;21046;-75
2022/01/29 07:19:37;;;;;;;42.53;18.98;;;9.40;82.70;;;;;;2597145;52;21104;-75
2022/01/29 07:22:06;;;;;;;32.63;16.40;;;9.40;83.40;;;;;;2350192;57;21180;-75
2022/01/29 07:24:34;;;;;;;43.55;21.92;;;9.40;82.50;;;;;;2349009;57;21170;-75
2022/01/29 07:27:01;;;;;;;34.25;18.95;;;9.50;83.40;;;;;;2350099;57;21176;-75
2022/01/29 07:29:28;;;;;;;44.08;19.30;;;9.50;84.00;;;;;;2349533;57;21097;-75
2022/01/29 07:31:56;;;;;;;37.00;17.90;;;9.50;83.30;;;;;;2349881;57;21104;-75
2022/01/29 07:34:24;;;;;;;45.22;20.17;;;9.50;83.90;;;;;;2350096;57;21713;-74
2022/01/29 07:36:51;;;;;;;40.38;19.87;;;9.50;83.80;;;;;;2350028;57;21046;-75
2022/01/29 07:39:19;;;;;;;37.08;18.42;;;9.50;83.00;;;;;;2349327;57;21049;-74
2022/01/29 07:41:47;;;;;;;38.30;19.27;;;9.60;83.70;;;;;;2349749;57;21030;-75
2022/01/29 07:44:15;;;;;;;33.08;17.77;;;9.60;84.40;;;;;;2349893;57;21037;-75
2022/01/29 07:46:43;;;;;;;35.30;17.08;;;9.60;84.30;;;;;;2348361;57;21041;-75
2022/01/29 07:49:12;;;;;;;36.00;18.20;;;9.60;84.50;;;;;;2347750;57;21058;-75
2022/01/29 07:51:40;;;;;;;35.00;17.27;;;9.60;84.60;;;;;;2348738;57;21049;-77
2022/01/29 07:54:08;;;;;;;32.55;17.37;;;9.60;83.90;;;;;;2597596;53;21031;-75
2022/01/29 07:56:35;;;;;;;27.90;14.90;;;9.70;84.20;;;;;;2349448;57;21089;-75
2022/01/29 07:59:03;;;;;;;26.37;15.63;;;9.70;83.50;;;;;;2349287;57;21135;-75
2022/01/29 08:01:30;;;;;;;32.53;15.05;;;9.70;83.30;;;;;;2349088;57;21037;-74
2022/01/29 08:03:58;;;;;;;27.42;14.50;;;9.70;83.40;;;;;;2348702;57;21065;-76
2022/01/29 08:06:29;;;;;;;29.02;14.32;;;9.70;83.70;;;;;;2349084;57;21132;-75
2022/01/29 08:08:56;;;;;;;25.25;14.52;;;9.70;84.20;;;;;;2348675;57;21034;-75
2022/01/29 08:11:24;;;;;;;24.75;12.68;;;9.80;84.20;;;;;;2596949;53;21109;-76
2022/01/29 08:13:51;;;;;;;19.30;11.20;;;9.80;83.60;;;;;;2350723;57;21057;-77
2022/01/29 08:16:19;;;;;;;21.25;11.93;;;9.80;84.10;;;;;;2350657;57;21105;-76
2022/01/29 08:18:46;;;;;;;21.98;11.85;;;9.90;83.90;;;;;;2598167;53;21124;-76
2022/01/29 08:21:14;;;;;;;23.50;11.55;;;9.90;83.80;;;;;;2350631;57;21033;-77
2022/01/29 08:23:42;;;;;;;16.48;9.15;;;9.90;83.50;;;;;;2598867;53;21065;-78
2022/01/29 08:26:10;;;;;;;19.25;9.93;;;9.90;83.40;;;;;;2351006;57;21065;-76
2022/01/29 08:28:38;;;;;;;13.85;9.23;;;9.90;82.90;;;;;;2350633;57;21050;-75
2022/01/29 08:31:05;;;;;;;16.92;8.93;;;9.90;83.20;;;;;;2347974;57;21129;-75
2022/01/29 08:33:33;;;;;;;12.15;7.28;;;10.00;82.70;;;;;;2350384;57;21041;-75
2022/01/29 08:36:03;;;;;;;13.82;8.57;;;10.00;82.00;;;;;;2350389;57;21120;-75
2022/01/29 08:38:31;;;;;;;12.70;8.30;;;10.00;82.10;;;;;;2349220;57;21544;-75
2022/01/29 08:40:59;;;;;;;17.23;9.07;;;10.00;82.40;;;;;;2347577;57;21039;-75
2022/01/29 08:43:26;;;;;;;13.30;7.78;;;10.00;82.70;;;;;;2350128;57;21041;-75
2022/01/29 08:45:54;;;;;;;12.85;7.60;;;10.10;82.90;;;;;;2350859;57;21057;-77
2022/01/29 08:48:22;;;;;;;15.73;9.45;;;10.00;83.70;;;;;;2350963;57;21026;-75
2022/01/29 08:50:49;;;;;;;13.75;7.60;;;10.00;83.20;;;;;;2349798;57;21033;-74
2022/01/29 08:53:19;;;;;;;13.80;7.78;;;9.90;83.90;;;;;;2598709;53;21054;-74
2022/01/29 08:55:46;;;;;;;13.30;8.57;;;10.00;84.20;;;;;;2350601;57;21045;-74
2022/01/29 08:58:14;;;;;;;12.05;8.00;;;10.00;83.40;;;;;;2351012;57;21588;-73
2022/01/29 09:00:44;;;;;;;12.60;7.37;;;10.00;83.10;;;;;;2349566;57;21759;-74
2022/01/29 09:03:13;;;;;;;11.95;7.43;;;10.00;82.80;;;;;;2599013;53;21089;-74
2022/01/29 09:05:41;;;;;;;16.30;8.80;;;10.00;83.30;;;;;;2350385;57;21109;-74
2022/01/29 09:08:09;;;;;;;14.90;8.82;;;10.00;84.90;;;;;;2350535;57;21085;-74
2022/01/29 09:10:37;;;;;;;13.90;8.57;;;10.00;84.20;;;;;;2349986;57;21121;-74
2022/01/29 09:13:04;;;;;;;13.30;7.85;;;10.00;84.30;;;;;;2350620;57;21049;-74
2022/01/29 09:15:31;;;;;;;11.85;6.87;;;10.10;84.10;;;;;;2349529;57;21089;-74
2022/01/29 09:17:58;;;;;;;10.95;6.95;;;10.00;84.20;;;;;;2350688;57;21053;-74
2022/01/29 09:20:26;;;;;;;13.18;8.18;;;10.10;84.00;;;;;;2350169;57;21144;-74
2022/01/29 09:22:54;;;;;;;13.60;8.18;;;10.10;83.30;;;;;;2350757;57;21365;-74
2022/01/29 09:25:21;;;;;;;15.43;8.80;;;10.10;83.20;;;;;;2350257;57;21117;-74
2022/01/29 09:27:48;;;;;;;13.57;7.47;;;10.20;83.50;;;;;;2350663;57;21120;-75
2022/01/29 09:30:16;;;;;;;13.75;7.97;;;10.10;83.40;;;;;;2350412;57;21041;-74
2022/01/29 09:32:43;;;;;;;13.05;8.00;;;10.10;83.80;;;;;;2350521;57;21579;-74
2022/01/29 09:35:10;;;;;;;15.18;8.82;;;10.10;83.70;;;;;;2351186;57;21025;-75
2022/01/29 09:37:37;;;;;;;16.95;9.68;;;10.20;83.90;;;;;;2351069;57;21116;-74
2022/01/29 09:40:07;;;;;;;12.15;8.23;;;10.20;83.90;;;;;;2350873;57;21034;-74
2022/01/29 09:42:36;;;;;;;16.02;8.82;;;10.10;84.30;;;;;;2351143;57;21575;-75
2022/01/29 09:45:03;;;;;;;13.43;8.88;;;10.20;84.30;;;;;;2351042;57;21022;-74
2022/01/29 09:47:31;;;;;;;16.77;9.32;;;10.10;84.00;;;;;;2599594;53;21511;-74
2022/01/29 09:49:59;;;;;;;11.70;7.93;;;10.20;84.60;;;;;;2350691;57;21038;-74
2022/01/29 09:52:26;;;;;;;12.60;8.02;;;10.20;83.70;;;;;;2351434;57;21117;-74
2022/01/29 09:54:54;;;;;;;12.80;7.93;;;10.20;83.30;;;;;;2351243;57;21037;-74
2022/01/29 09:57:21;;;;;;;11.20;6.78;;;10.20;83.60;;;;;;2351292;57;21054;-74
2022/01/29 09:59:50;;;;;;;13.27;8.30;;;10.20;83.90;;;;;;2350599;57;21587;-74
2022/01/29 10:02:19;;;;;;;15.70;9.27;;;10.30;84.20;;;;;;2351275;57;21048;-74
2022/01/29 10:04:48;;;;;;;12.18;7.28;;;10.20;84.10;;;;;;2599804;53;21050;-74
2022/01/29 10:07:17;;;;;;;9.52;5.80;;;10.30;83.80;;;;;;2599447;53;21607;-75
2022/01/29 10:09:45;;;;;;;13.48;8.13;;;10.30;82.80;;;;;;2430994;53;21050;-73
2022/01/29 10:12:18;;;;;;;10.00;6.95;;;10.30;83.60;;;;;;2349316;57;21042;-74
2022/01/29 10:14:57;;;;;;;15.50;8.27;;;10.30;83.30;;;;;;2349200;57;21066;-73
2022/01/29 10:17:42;;;;;;;10.65;6.62;;;10.40;83.10;;;;;;2349162;57;21115;-73
2022/01/29 10:20:29;;;;;;;10.13;6.30;;;10.40;83.10;;;;;;2376395;52;21144;-73
2022/01/29 10:22:58;;;;;;;10.88;6.95;;;10.40;82.50;;;;;;2377006;56;21100;-74
2022/01/29 10:25:27;;;;;;;14.57;6.78;;;10.30;82.60;;;;;;2376653;56;21171;-74
2022/01/29 10:28:11;;;;;;;12.93;7.25;;;10.30;82.60;;;;;;2376744;54;21582;-74
2022/01/29 10:30:55;;;;;;;14.07;7.85;;;10.30;82.70;;;;;;2376128;56;21349;-73
2022/01/29 10:33:25;;;;;;;12.85;7.20;;;10.30;83.40;;;;;;2376492;56;21060;-74
2022/01/29 10:35:53;;;;;;;12.75;7.37;;;10.30;83.60;;;;;;2377623;52;21033;-73
2022/01/29 10:38:22;;;;;;;10.13;6.07;;;10.30;83.60;;;;;;2376747;56;21045;-73
2022/01/29 10:41:17;;;;;;;11.02;6.62;;;10.40;83.90;;;;;;2378388;52;21091;-73
2022/01/29 10:44:10;;;;;;;11.63;7.03;;;10.40;83.00;;;;;;2375665;56;21158;-74
2022/01/29 10:46:39;;;;;;;11.00;6.72;;;10.40;83.60;;;;;;2376692;56;21129;-74
2022/01/29 10:49:07;;;;;;;11.63;6.70;;;10.40;82.60;;;;;;2375706;56;21051;-72
2022/01/29 10:51:35;;;;;;;11.38;6.78;;;10.40;83.20;;;;;;2443848;52;21112;-73
2022/01/29 10:54:19;;;;;;;9.63;6.87;;;10.40;83.80;;;;;;2432732;52;21553;-72
2022/01/29 10:56:55;;;;;;;11.77;6.43;;;10.40;83.80;;;;;;2404752;52;21124;-74
2022/01/29 10:59:23;;;;;;;9.88;6.60;;;10.40;84.00;;;;;;2376117;56;21088;-73
2022/01/29 11:01:55;;;;;;;15.07;9.07;;;10.40;83.50;;;;;;2376428;56;21123;-74
2022/01/29 11:04:25;;;;;;;9.43;6.90;;;10.40;83.70;;;;;;2376278;56;21044;-74
2022/01/29 11:06:54;;;;;;;9.73;6.18;;;10.50;83.10;;;;;;2376396;56;21044;-74
2022/01/29 11:09:22;;;;;;;11.90;7.87;;;10.50;83.50;;;;;;2376370;56;21136;-73
2022/01/29 11:11:50;;;;;;;9.82;6.70;;;10.60;83.50;;;;;;2387650;52;21523;-74
2022/01/29 11:14:20;;;;;;;11.43;7.37;;;10.50;83.20;;;;;;2375594;56;21044;-73
2022/01/29 11:16:49;;;;;;;10.00;6.37;;;10.50;83.40;;;;;;2376509;56;21044;-74
2022/01/29 11:19:17;;;;;;;10.95;7.30;;;10.50;83.60;;;;;;2375885;56;21095;-73
2022/01/29 11:21:46;;;;;;;13.02;7.35;;;10.60;83.80;;;;;;2376589;56;21028;-73
2022/01/29 11:24:17;;;;;;;9.65;7.25;;;10.60;83.80;;;;;;2376425;56;21044;-73
2022/01/29 11:26:45;;;;;;;12.23;8.48;;;10.60;83.70;;;;;;2376601;56;21088;-73
2022/01/29 11:29:31;;;;;;;13.77;9.35;;;10.60;83.50;;;;;;2376207;56;21194;-73
2022/01/29 11:32:25;;;;;;;11.07;7.57;;;10.60;83.90;;;;;;2469500;52;21116;-73
2022/01/29 11:37:44;;;;;;;14.52;10.10;;;10.60;83.70;;;;;;2355943;57;22560;-74
2022/01/29 11:40:18;;;;;;;16.65;10.63;;;10.60;83.80;;;;;;2346485;57;21102;-74
2022/01/29 11:43:07;;;;;;;13.98;8.40;;;10.60;83.70;;;;;;2346342;57;21121;-74
2022/01/29 11:46:04;;;;;;;16.90;9.43;;;10.60;83.50;;;;;;2377181;53;21049;-72
2022/01/29 11:48:51;;;;;;;16.05;8.65;;;10.60;83.20;;;;;;2342878;57;21037;-72
2022/01/29 11:51:47;;;;;;;18.05;10.70;;;10.70;83.30;;;;;;2346346;57;21105;-74
2022/01/29 11:54:20;;;;;;;15.27;9.02;;;10.70;82.90;;;;;;2371130;53;21046;-74
2022/01/29 11:57:04;;;;;;;17.00;10.43;;;10.60;82.80;;;;;;2346102;57;21054;-72
2022/01/29 11:59:30;;;;;;;;;;;10.60;83.00;;;;;;2349160;57;21058;-74
2022/01/29 12:02:01;;;;;;;19.27;8.90;;;10.70;83.50;;;;;;2399752;53;20086;-74
2022/01/29 12:05:09;;;;;;;11.52;7.05;;;10.70;82.20;;;;;;2346112;57;21054;-74
2022/01/29 12:08:06;;;;;;;16.75;8.50;;;10.70;82.20;;;;;;2345916;57;21516;-73
2022/01/29 12:10:41;;;;;;;14.23;7.82;;;10.60;82.00;;;;;;2345705;57;21022;-73
2022/01/29 12:13:14;;;;;;;11.82;6.68;;;10.70;82.70;;;;;;2346133;57;21030;-73
2022/01/29 12:15:42;;;;;;;13.93;6.82;;;10.70;82.30;;;;;;2346015;57;21066;-73
2022/01/29 12:21:08;;;;;;;14.65;7.32;;;10.70;82.90;;;;;;2330986;57;22087;-73
2022/01/29 12:23:51;;;;;;;14.93;8.27;;;10.70;82.50;;;;;;2358843;53;21037;-72
2022/01/29 12:26:22;;;;;;;12.13;7.15;;;10.70;83.10;;;;;;2347924;57;21064;-74
2022/01/29 12:28:55;;;;;;;12.50;6.62;;;10.70;82.90;;;;;;2347342;57;21117;-75
2022/01/29 12:31:22;;;;;;;12.63;7.95;;;10.70;83.10;;;;;;2402812;53;21570;-74
2022/01/29 12:33:49;;;;;;;13.70;6.75;;;10.70;83.30;;;;;;2347452;57;21069;-74
2022/01/29 12:36:17;;;;;;;10.27;6.12;;;10.70;82.90;;;;;;2347632;57;21064;-75
2022/01/29 12:38:45;;;;;;;12.45;7.20;;;10.80;82.40;;;;;;2347072;57;21042;-74
2022/01/29 12:41:16;;;;;;;13.57;7.37;;;10.80;82.80;;;;;;2346674;57;21042;-75
2022/01/29 12:43:52;;;;;;;11.05;6.10;;;10.80;82.50;;;;;;2377068;53;21033;-75
2022/01/29 12:46:22;;;;;;;9.80;5.93;;;10.80;82.00;;;;;;2347585;57;21034;-74
2022/01/29 12:49:02;;;;;;;15.02;6.45;;;10.90;82.30;;;;;;2347007;57;21086;-74
2022/01/29 12:51:30;;;;;;;18.77;7.18;;;10.90;82.70;;;;;;2347711;57;21046;-74
2022/01/29 12:53:58;;;;;;;15.23;7.12;;;10.90;82.50;;;;;;2347373;57;21050;-75
2022/01/29 12:56:31;;;;;;;15.07;7.22;;;11.00;82.50;;;;;;2347454;57;21137;-74
2022/01/29 12:58:59;;;;;;;;;;;10.90;82.80;;;;;;2350096;57;21089;-74
2022/01/29 13:01:26;;;;;;;11.25;6.00;;;11.00;82.50;;;;;;2346695;57;20098;-75
2022/01/29 13:04:01;;;;;;;9.82;5.80;;;11.00;82.60;;;;;;2346558;57;21052;-75
2022/01/29 13:06:28;;;;;;;10.85;6.12;;;11.00;82.50;;;;;;2347364;57;21104;-75